createdAt,value
2018-02-23T00:01:07.154Z,50.80
2018-02-23T00:03:33.715Z,51.00
2018-02-23T00:06:00.302Z,50.80
2018-02-23T00:08:26.896Z,50.80
2018-02-23T00:10:53.470Z,50.60
2018-02-23T00:13:20.817Z,50.80
2018-02-23T00:15:47.414Z,50.70
2018-02-23T00:18:14.024Z,50.20
2018-02-23T00:20:40.815Z,51.10
2018-02-23T00:23:07.378Z,50.80
2018-02-23T00:25:33.958Z,51.00
2018-02-23T00:28:01.275Z,50.00
2018-02-23T00:30:27.848Z,50.00
2018-02-23T00:32:55.165Z,50.50
2018-02-23T00:35:22.495Z,50.50
2018-02-23T00:37:49.050Z,50.50
2018-02-23T00:40:16.422Z,50.70
2018-02-23T00:42:42.974Z,50.60
2018-02-23T00:45:09.574Z,50.40
2018-02-23T00:47:36.159Z,51.30
2018-02-23T00:50:03.466Z,51.30
2018-02-23T00:52:30.076Z,51.20
2018-02-23T00:54:57.409Z,52.20
2018-02-23T00:57:23.975Z,52.10
2018-02-23T00:59:50.562Z,51.70
2018-02-23T01:02:17.158Z,52.40
2018-02-23T01:04:43.722Z,52.40
2018-02-23T01:07:10.438Z,53.00
2018-02-23T01:09:37.790Z,54.10
2018-02-23T01:12:04.344Z,54.00
2018-02-23T01:14:30.945Z,54.00
2018-02-23T01:16:57.490Z,54.30
2018-02-23T01:19:24.114Z,54.30
2018-02-23T01:21:50.707Z,54.10
2018-02-23T01:24:18.007Z,53.90
2018-02-23T01:26:44.585Z,53.80
2018-02-23T01:29:12.499Z,53.70
2018-02-23T01:31:39.062Z,53.20
2018-02-23T01:34:05.610Z,53.40
2018-02-23T01:36:32.530Z,52.80
2018-02-23T01:38:59.054Z,53.30
2018-02-23T01:41:25.731Z,52.70
2018-02-23T01:43:53.074Z,53.10
2018-02-23T01:46:19.635Z,53.10
2018-02-23T01:48:46.254Z,53.10
2018-02-23T01:51:12.836Z,53.60
2018-02-23T01:53:39.466Z,52.50
2018-02-23T01:56:06.791Z,52.50
2018-02-23T01:58:33.345Z,52.60
2018-02-23T02:01:00.655Z,51.90
2018-02-23T02:03:27.970Z,52.60
2018-02-23T02:05:54.523Z,52.60
2018-02-23T02:08:22.181Z,51.80
2018-02-23T02:10:48.752Z,51.60
2018-02-23T02:13:15.320Z,50.90
2018-02-23T02:15:42.776Z,51.60
2018-02-23T02:18:09.361Z,51.60
2018-02-23T02:20:36.202Z,51.00
2018-02-23T02:23:02.772Z,51.30
2018-02-23T02:25:29.334Z,51.40
2018-02-23T02:27:56.655Z,51.30
2018-02-23T02:30:23.221Z,51.30
2018-02-23T02:32:50.522Z,51.50
2018-02-23T02:35:17.115Z,51.50
2018-02-23T02:37:44.474Z,52.90
2018-02-23T02:40:11.833Z,51.60
2018-02-23T02:42:38.425Z,51.60
2018-02-23T02:45:05.219Z,52.30
2018-02-23T02:47:31.774Z,52.30
2018-02-23T02:49:58.351Z,51.80
2018-02-23T02:52:24.915Z,52.10
2018-02-23T02:54:51.474Z,52.30
2018-02-23T02:57:18.068Z,52.00
2018-02-23T02:59:44.658Z,51.60
2018-02-23T03:02:11.238Z,51.60
2018-02-23T03:04:38.570Z,51.80
2018-02-23T03:07:05.387Z,51.70
2018-02-23T03:09:31.952Z,53.60
2018-02-23T03:11:58.519Z,53.00
2018-02-23T03:14:25.844Z,52.80
2018-02-23T03:16:53.159Z,52.90
2018-02-23T03:19:20.115Z,52.90
2018-02-23T03:21:46.654Z,52.20
2018-02-23T03:24:13.209Z,53.40
2018-02-23T03:26:39.799Z,52.60
2018-02-23T03:29:06.356Z,53.30
2018-02-23T03:31:32.948Z,52.80
2018-02-23T03:34:00.258Z,53.30
2018-02-23T03:36:27.181Z,53.20
2018-02-23T03:38:53.872Z,51.90
2018-02-23T03:41:20.486Z,52.40
2018-02-23T03:43:47.083Z,52.40
2018-02-23T03:46:13.647Z,52.20
2018-02-23T03:48:40.250Z,52.70
2018-02-23T03:51:06.809Z,51.90
2018-02-23T03:53:33.561Z,51.90
2018-02-23T03:56:00.155Z,52.80
2018-02-23T03:58:26.752Z,52.30
2018-02-23T04:00:53.317Z,52.60
2018-02-23T04:03:19.897Z,52.80
2018-02-23T04:05:46.469Z,52.60
2018-02-23T04:08:13.075Z,52.30
2018-02-23T04:10:40.029Z,52.70
2018-02-23T04:13:06.662Z,52.60
2018-02-23T04:15:33.231Z,52.90
2018-02-23T04:18:00.551Z,52.30
2018-02-23T04:20:27.166Z,52.30
2018-02-23T04:22:53.743Z,52.50
2018-02-23T04:25:21.102Z,52.30
2018-02-23T04:27:48.446Z,52.40
2018-02-23T04:30:15.018Z,52.40
2018-02-23T04:32:42.659Z,52.20
2018-02-23T04:35:09.262Z,52.20
2018-02-23T04:37:35.829Z,52.30
2018-02-23T04:40:02.475Z,52.80
2018-02-23T04:42:29.770Z,52.40
2018-02-23T04:44:56.315Z,52.40
2018-02-23T04:47:22.914Z,52.70
2018-02-23T04:49:50.515Z,51.80
2018-02-23T04:52:17.106Z,51.80
2018-02-23T04:54:43.638Z,51.40
2018-02-23T04:57:10.257Z,51.10
2018-02-23T04:59:36.821Z,51.30
2018-02-23T05:02:04.193Z,51.60
2018-02-23T05:04:30.795Z,51.50
2018-02-23T05:06:57.401Z,51.70
2018-02-23T05:09:24.100Z,50.90
2018-02-23T05:11:50.693Z,50.70
2018-02-23T05:14:17.307Z,50.60
2018-02-23T05:16:43.946Z,51.60
2018-02-23T05:19:10.550Z,51.10
2018-02-23T05:21:37.149Z,51.20
2018-02-23T05:24:03.793Z,52.00
2018-02-23T05:26:30.387Z,51.10
2018-02-23T05:28:57.009Z,51.50
2018-02-23T05:31:23.591Z,50.90
2018-02-23T05:33:50.183Z,50.90
2018-02-23T05:36:17.192Z,50.70
2018-02-23T05:38:44.469Z,51.40
2018-02-23T05:41:11.034Z,51.30
2018-02-23T05:43:37.596Z,51.00
2018-02-23T05:46:04.893Z,51.60
2018-02-23T05:48:31.458Z,52.30
2018-02-23T05:50:58.043Z,51.20
2018-02-23T05:53:24.577Z,51.30
2018-02-23T05:55:51.947Z,50.80
2018-02-23T05:58:19.250Z,51.10
2018-02-23T06:00:46.635Z,51.20
2018-02-23T06:03:13.265Z,51.20
2018-02-23T06:05:39.860Z,52.00
2018-02-23T06:08:06.453Z,51.80
2018-02-23T06:10:33.739Z,51.00
2018-02-23T06:13:00.370Z,50.90
2018-02-23T06:15:32.968Z,51.70
2018-02-23T06:18:05.914Z,50.80
2018-02-23T06:20:32.542Z,51.20
2018-02-23T06:22:59.147Z,51.40
2018-02-23T06:25:25.723Z,51.40
2018-02-23T06:27:52.302Z,51.60
2018-02-23T06:30:18.877Z,51.50
2018-02-23T06:32:45.445Z,51.40
2018-02-23T06:35:12.766Z,52.10
2018-02-23T06:37:39.324Z,51.90
2018-02-23T06:40:06.677Z,52.40
2018-02-23T06:42:33.272Z,52.30
2018-02-23T06:44:59.826Z,52.20
2018-02-23T06:47:26.414Z,52.60
2018-02-23T06:49:52.975Z,52.60
2018-02-23T06:52:19.570Z,52.60
2018-02-23T06:54:46.155Z,52.70
2018-02-23T06:57:12.686Z,52.00
2018-02-23T06:59:39.242Z,52.70
2018-02-23T07:02:05.813Z,53.20
2018-02-23T07:04:32.424Z,52.30
2018-02-23T07:06:59.032Z,52.50
2018-02-23T07:09:25.609Z,53.60
2018-02-23T07:11:52.163Z,53.30
2018-02-23T07:14:18.802Z,53.40
2018-02-23T07:16:45.417Z,53.10
2018-02-23T07:19:12.780Z,53.40
2018-02-23T07:21:39.408Z,53.40
2018-02-23T07:24:05.998Z,53.60
2018-02-23T07:26:32.574Z,52.90
2018-02-23T07:28:59.132Z,53.50
2018-02-23T07:31:26.435Z,53.40
2018-02-23T07:33:53.027Z,53.50
2018-02-23T07:36:19.997Z,53.20
2018-02-23T07:38:46.557Z,53.50
2018-02-23T07:41:13.122Z,53.60
2018-02-23T07:43:40.446Z,53.10
2018-02-23T07:46:07.041Z,53.10
2018-02-23T07:48:33.651Z,53.50
2018-02-23T07:51:01.008Z,53.60
2018-02-23T07:53:28.433Z,53.60
2018-02-23T07:55:55.021Z,53.60
2018-02-23T07:58:21.752Z,53.60
2018-02-23T08:00:48.354Z,53.80
2018-02-23T08:03:15.970Z,53.10
2018-02-23T08:05:42.604Z,53.30
2018-02-23T08:08:09.222Z,52.90
2018-02-23T08:10:36.681Z,53.40
2018-02-23T08:13:03.270Z,53.30
2018-02-23T08:15:30.667Z,52.30
2018-02-23T08:17:57.239Z,52.20
2018-02-23T08:20:24.282Z,52.90
2018-02-23T08:22:50.883Z,53.80
2018-02-23T08:25:17.481Z,52.70
2018-02-23T08:27:44.091Z,52.20
2018-02-23T08:30:10.782Z,52.80
2018-02-23T08:32:38.111Z,51.70
2018-02-23T08:35:04.683Z,51.70
2018-02-23T08:37:31.571Z,52.20
2018-02-23T08:39:58.125Z,53.60
2018-02-23T08:42:24.718Z,53.00
2018-02-23T08:44:52.133Z,51.80
2018-02-23T08:47:18.717Z,51.70
2018-02-23T08:49:45.286Z,52.50
2018-02-23T08:52:11.894Z,51.80
2018-02-23T08:54:38.505Z,51.70
2018-02-23T08:57:05.832Z,51.10
2018-02-23T08:59:32.729Z,51.10
2018-02-23T09:01:59.359Z,51.50
2018-02-23T09:04:25.975Z,50.80
2018-02-23T09:06:53.443Z,51.90
2018-02-23T09:09:20.019Z,51.70
2018-02-23T09:11:46.590Z,50.70
2018-02-23T09:14:13.194Z,51.50
2018-02-23T09:16:39.771Z,51.00
2018-02-23T09:19:06.360Z,50.70
2018-02-23T09:21:33.834Z,50.60
2018-02-23T09:24:01.149Z,51.30
2018-02-23T09:26:27.955Z,50.30
2018-02-23T09:28:54.535Z,50.20
2018-02-23T09:31:21.106Z,50.30
2018-02-23T09:34:06.042Z,49.50
2018-02-23T09:36:33.337Z,50.20
2018-02-23T09:39:00.679Z,50.10
2018-02-23T09:41:28.048Z,49.80
2018-02-23T09:43:54.652Z,49.70
2018-02-23T09:46:21.382Z,49.00
2018-02-23T09:48:47.992Z,49.10
2018-02-23T09:51:14.586Z,49.00
2018-02-23T09:53:41.935Z,50.30
2018-02-23T09:56:09.275Z,49.80
2018-02-23T09:58:35.837Z,49.60
2018-02-23T10:01:02.511Z,49.40
2018-02-23T10:03:29.088Z,49.40
2018-02-23T10:05:56.238Z,49.70
2018-02-23T10:08:22.912Z,48.70
2018-02-23T10:10:50.329Z,49.10
2018-02-23T10:13:16.927Z,49.10
2018-02-23T10:15:44.250Z,48.90
2018-02-23T10:18:10.855Z,48.90
2018-02-23T10:20:37.407Z,49.50
2018-02-23T10:23:04.004Z,49.40
2018-02-23T10:25:30.575Z,48.90
2018-02-23T10:27:57.180Z,49.40
2018-02-23T10:30:23.754Z,49.70
2018-02-23T10:32:51.143Z,48.90
2018-02-23T10:35:17.726Z,48.90
2018-02-23T10:37:44.295Z,49.40
2018-02-23T10:40:10.932Z,50.10
2018-02-23T10:42:38.310Z,49.30
2018-02-23T10:45:04.951Z,49.30
2018-02-23T10:47:31.525Z,48.80
2018-02-23T10:49:58.122Z,48.90
2018-02-23T10:52:24.759Z,47.70
2018-02-23T10:54:52.143Z,49.10
2018-02-23T10:57:18.748Z,49.10
2018-02-23T10:59:45.386Z,48.40
2018-02-23T11:02:12.780Z,48.30
2018-02-23T11:04:39.402Z,48.20
2018-02-23T11:07:06.012Z,47.70
2018-02-23T11:09:32.673Z,48.10
2018-02-23T11:11:59.287Z,47.60
2018-02-23T11:14:25.878Z,47.90
2018-02-23T11:16:52.491Z,47.90
2018-02-23T11:19:19.135Z,48.00
2018-02-23T11:21:45.728Z,47.20
2018-02-23T11:24:13.046Z,47.90
2018-02-23T11:26:39.978Z,47.90
2018-02-23T11:29:06.577Z,48.20
2018-02-23T11:31:33.951Z,47.90
2018-02-23T11:34:00.545Z,47.90
2018-02-23T11:36:27.107Z,48.30
2018-02-23T11:38:54.407Z,49.20
2018-02-23T11:41:20.996Z,49.10
2018-02-23T11:43:48.362Z,49.00
2018-02-23T11:46:15.703Z,48.90
2018-02-23T11:48:43.049Z,49.60
2018-02-23T11:51:10.382Z,49.20
2018-02-23T11:53:36.947Z,49.00
2018-02-23T11:56:04.260Z,49.60
2018-02-23T11:58:31.722Z,48.30
2018-02-23T12:00:58.322Z,48.20
2018-02-23T12:03:24.960Z,48.50
2018-02-23T12:05:51.531Z,48.80
2018-02-23T12:08:18.402Z,48.80
2018-02-23T12:10:45.716Z,49.20
2018-02-23T12:13:13.063Z,48.40
2018-02-23T12:15:39.646Z,48.40
2018-02-23T12:18:07.225Z,48.60
2018-02-23T12:20:33.847Z,48.60
2018-02-23T12:23:01.150Z,49.10
2018-02-23T12:25:27.780Z,49.00
2018-02-23T12:27:54.373Z,48.20
2018-02-23T12:30:22.634Z,48.20
2018-02-23T12:32:50.274Z,48.10
2018-02-23T12:35:16.895Z,48.10
2018-02-23T12:37:43.451Z,48.70
2018-02-23T12:40:10.050Z,48.40
2018-02-23T12:42:36.667Z,48.40
2018-02-23T12:45:04.073Z,49.40
2018-02-23T12:47:30.669Z,49.40
2018-02-23T12:49:57.266Z,48.70
2018-02-23T12:52:23.859Z,49.20
2018-02-23T12:54:50.449Z,48.40
2018-02-23T12:57:17.040Z,49.00
2018-02-23T12:59:43.921Z,48.20
2018-02-23T13:02:10.480Z,48.00
2018-02-23T13:04:38.639Z,49.00
2018-02-23T13:07:05.988Z,49.30
2018-02-23T13:09:32.598Z,49.30
2018-02-23T13:11:59.626Z,49.20
2018-02-23T13:14:32.174Z,48.40
2018-02-23T13:16:58.892Z,49.30
2018-02-23T13:19:26.274Z,49.90
2018-02-23T13:21:53.250Z,49.90
2018-02-23T13:24:20.647Z,50.00
2018-02-23T13:26:48.052Z,50.00
2018-02-23T13:29:14.747Z,50.00
2018-02-23T13:31:41.366Z,50.30
2018-02-23T13:34:08.753Z,49.30
2018-02-23T13:36:35.342Z,49.30
2018-02-23T13:39:02.029Z,50.40
2018-02-23T13:41:35.155Z,50.20
2018-02-23T13:44:01.794Z,49.60
2018-02-23T13:46:28.442Z,50.40
2018-02-23T13:48:55.970Z,49.70
2018-02-23T13:51:22.564Z,49.80
2018-02-23T13:53:49.583Z,49.70
2018-02-23T13:56:16.199Z,49.80
2018-02-23T13:58:42.766Z,50.30
2018-02-23T14:01:10.107Z,49.50
2018-02-23T14:03:36.781Z,49.50
2018-02-23T14:06:03.442Z,49.50
2018-02-23T14:08:30.023Z,49.20
2018-02-23T14:10:56.652Z,49.00
2018-02-23T14:13:23.273Z,48.50
2018-02-23T14:15:50.122Z,48.90
2018-02-23T14:18:16.730Z,49.70
2018-02-23T14:20:43.307Z,49.70
2018-02-23T14:23:10.279Z,49.30
2018-02-23T14:25:36.899Z,48.60
2018-02-23T14:28:03.544Z,49.50
2018-02-23T14:30:30.151Z,49.90
2018-02-23T14:32:57.026Z,49.10
2018-02-23T14:35:23.642Z,48.80
2018-02-23T14:37:50.390Z,48.40
2018-02-23T14:40:17.043Z,48.60
2018-02-23T14:42:43.965Z,49.50
2018-02-23T14:45:10.592Z,49.60
2018-02-23T14:47:37.177Z,49.10
2018-02-23T14:50:22.192Z,47.90
2018-02-23T14:52:48.710Z,48.80
2018-02-23T14:55:15.319Z,48.80
2018-02-23T14:57:41.987Z,48.80
2018-02-23T15:00:08.569Z,48.60
2018-02-23T15:02:36.212Z,48.80
2018-02-23T15:05:02.877Z,48.20
2018-02-23T15:07:30.301Z,48.30
2018-02-23T15:09:56.919Z,48.30
2018-02-23T15:12:23.512Z,48.40
2018-02-23T15:14:50.093Z,49.20
2018-02-23T15:17:17.064Z,49.50
2018-02-23T15:19:43.642Z,48.80
2018-02-23T15:22:10.225Z,48.90
2018-02-23T15:24:36.848Z,49.00
2018-02-23T15:27:03.519Z,49.30
2018-02-23T15:29:30.128Z,48.50
2018-02-23T15:32:15.084Z,49.10
2018-02-23T15:34:41.918Z,48.90
2018-02-23T15:37:08.564Z,49.80
2018-02-23T15:39:35.169Z,49.90
2018-02-23T15:42:02.524Z,49.90
2018-02-23T15:44:29.960Z,50.60
2018-02-23T15:46:56.571Z,50.50
2018-02-23T16:02:43.196Z,50.00
2018-02-23T16:05:09.916Z,50.00
2018-02-23T16:07:36.525Z,50.30
2018-02-23T16:10:03.191Z,50.00
2018-02-23T16:12:29.876Z,50.50
2018-02-23T16:14:56.482Z,50.30
2018-02-23T16:17:23.114Z,50.00
2018-02-23T16:19:49.693Z,50.70
2018-02-23T16:22:17.419Z,50.90
2018-02-23T16:24:44.799Z,51.00
2018-02-23T16:27:11.435Z,51.00
2018-02-23T16:29:38.053Z,50.70
2018-02-23T16:32:04.916Z,50.00
2018-02-23T16:34:32.235Z,50.60
2018-02-23T16:36:58.883Z,50.60
2018-02-23T16:39:26.264Z,50.80
2018-02-23T16:41:52.862Z,50.80
2018-02-23T16:44:19.566Z,50.80
2018-02-23T16:46:46.222Z,50.10
2018-02-23T16:49:12.802Z,50.00
2018-02-23T16:51:40.532Z,51.00
2018-02-23T16:54:07.133Z,51.10
2018-02-23T16:56:33.750Z,51.10
2018-02-23T16:59:00.381Z,50.60
2018-02-23T17:01:27.799Z,50.90
2018-02-23T17:03:54.413Z,51.40
2018-02-23T17:06:21.066Z,51.20
2018-02-23T17:08:48.386Z,52.00
2018-02-23T17:11:15.051Z,52.00
2018-02-23T17:13:42.385Z,51.20
2018-02-23T17:16:09.045Z,51.20
2018-02-23T17:18:35.631Z,51.50
2018-02-23T17:21:02.220Z,50.90
2018-02-23T17:23:28.860Z,51.10
2018-02-23T17:25:55.508Z,51.00
2018-02-23T17:28:22.098Z,51.60
2018-02-23T17:30:48.716Z,51.30
2018-02-23T17:33:16.035Z,52.20
2018-02-23T17:35:42.723Z,52.00
2018-02-23T17:38:09.271Z,52.70
2018-02-23T17:40:35.834Z,52.00
2018-02-23T17:43:02.755Z,52.40
2018-02-23T17:45:29.371Z,52.30
2018-02-23T17:47:56.686Z,52.90
2018-02-23T17:50:23.555Z,52.90
2018-02-23T17:52:51.061Z,52.80
2018-02-23T17:55:17.687Z,52.80
2018-02-23T17:57:44.262Z,52.70
2018-02-23T18:00:10.916Z,52.90
2018-02-23T18:02:37.515Z,52.40
2018-02-23T18:05:04.085Z,52.70
2018-02-23T18:07:31.419Z,52.60
2018-02-23T18:09:58.009Z,52.60
2018-02-23T18:12:26.310Z,52.00
2018-02-23T18:14:52.899Z,52.00
2018-02-23T18:17:19.515Z,52.40
2018-02-23T18:19:46.085Z,52.70
2018-02-23T18:22:12.655Z,52.20
2018-02-23T18:24:39.263Z,52.40
2018-02-23T18:27:06.563Z,51.20
2018-02-23T18:29:33.155Z,51.20
2018-02-23T18:31:59.791Z,51.50
2018-02-23T18:34:26.428Z,50.30
2018-02-23T18:36:53.112Z,50.20
2018-02-23T18:39:19.792Z,50.80
2018-02-23T18:41:47.141Z,50.30
2018-02-23T18:44:13.783Z,50.30
2018-02-23T18:46:40.428Z,50.30
2018-02-23T18:49:07.052Z,50.30
2018-02-23T18:51:33.684Z,49.30
2018-02-23T18:54:00.327Z,50.40
2018-02-23T18:56:26.941Z,49.90
2018-02-23T18:58:53.563Z,49.90
2018-02-23T19:01:20.164Z,50.00
2018-02-23T19:03:46.809Z,49.20
2018-02-23T19:06:13.451Z,48.90
2018-02-23T19:08:40.538Z,49.60
2018-02-23T19:11:07.245Z,49.70
2018-02-23T19:13:33.846Z,49.60
2018-02-23T19:16:01.803Z,48.80
2018-02-23T19:18:28.366Z,48.80
2018-02-23T19:20:55.000Z,49.70
2018-02-23T19:23:21.728Z,50.00
2018-02-23T19:25:49.095Z,49.80
2018-02-23T19:28:16.511Z,50.00
2018-02-23T19:30:43.199Z,49.90
2018-02-23T19:33:10.591Z,49.00
2018-02-23T19:35:37.272Z,49.30
2018-02-23T19:38:03.946Z,49.10
2018-02-23T19:40:30.624Z,49.90
2018-02-23T19:42:57.230Z,49.40
2018-02-23T19:45:23.938Z,49.70
2018-02-23T19:47:51.962Z,49.40
2018-02-23T19:50:19.347Z,49.50
2018-02-23T19:52:46.085Z,49.50
2018-02-23T19:55:12.669Z,49.20
2018-02-23T19:57:39.843Z,49.30
2018-02-23T20:00:06.440Z,49.50
2018-02-23T20:02:33.348Z,49.50
2018-02-23T20:05:00.720Z,49.00
2018-02-23T20:07:28.095Z,49.60
2018-02-23T20:09:54.745Z,49.50
2018-02-23T20:12:21.382Z,49.40
2018-02-23T20:14:48.003Z,50.00
2018-02-23T20:17:15.380Z,49.30
2018-02-23T20:19:42.000Z,49.30
2018-02-23T20:22:08.630Z,49.30
2018-02-23T20:24:35.279Z,50.00
2018-02-23T20:27:01.922Z,49.30
2018-02-23T20:29:28.547Z,50.00
2018-02-23T20:31:55.164Z,49.90
2018-02-23T20:34:22.632Z,50.20
2018-02-23T20:36:49.928Z,50.00
2018-02-23T20:39:16.555Z,50.00
2018-02-23T20:41:43.175Z,50.40
2018-02-23T20:44:09.754Z,50.00
2018-02-23T20:46:36.361Z,49.90
2018-02-23T20:49:02.948Z,49.90
2018-02-23T20:51:29.536Z,50.20
2018-02-23T20:53:56.148Z,49.80
2018-02-23T20:56:22.833Z,50.30
2018-02-23T20:58:53.501Z,50.50
2018-02-23T21:01:24.745Z,50.60
2018-02-23T21:03:51.348Z,50.50
2018-02-23T21:06:18.693Z,50.60
2018-02-23T21:08:45.311Z,50.60
2018-02-23T21:11:11.970Z,50.10
2018-02-23T21:13:38.575Z,50.50
2018-02-23T21:16:05.184Z,50.50
2018-02-23T21:18:32.535Z,50.40
2018-02-23T21:20:59.155Z,50.40
2018-02-23T21:23:25.792Z,50.60
2018-02-23T21:25:52.846Z,50.70
2018-02-23T21:28:19.438Z,50.50
2018-02-23T21:30:46.027Z,50.50
2018-02-23T21:33:12.627Z,50.00
2018-02-23T21:35:40.035Z,51.00
2018-02-23T21:38:06.716Z,51.00
2018-02-23T21:40:33.297Z,49.70
2018-02-23T21:43:00.026Z,50.50
2018-02-23T21:45:26.808Z,50.50
2018-02-23T21:47:53.367Z,51.20
2018-02-23T21:50:19.944Z,50.00
2018-02-23T21:52:46.528Z,50.50
2018-02-23T21:55:14.011Z,50.80
2018-02-23T21:57:41.893Z,50.50
2018-02-23T22:00:08.666Z,50.50
2018-02-23T22:02:35.315Z,50.90
2018-02-23T22:05:02.731Z,51.20
2018-02-23T22:07:29.368Z,51.20
2018-02-23T22:09:56.752Z,50.90
2018-02-23T22:12:24.096Z,51.20
2018-02-23T22:14:50.688Z,51.20
2018-02-23T22:17:17.323Z,51.40
2018-02-23T22:19:43.944Z,51.90
2018-02-23T22:22:10.539Z,51.00
2018-02-23T22:24:37.161Z,51.20
2018-02-23T22:27:03.758Z,51.20
2018-02-23T22:29:30.407Z,51.70
2018-02-23T22:31:57.047Z,51.60
2018-02-23T22:34:23.646Z,51.60
2018-02-23T22:36:51.022Z,51.10
2018-02-23T22:39:17.643Z,51.00
2018-02-23T22:41:44.971Z,51.30
2018-02-23T22:44:12.327Z,51.50
2018-02-23T22:46:39.672Z,51.60
2018-02-23T22:49:07.090Z,51.60
2018-02-23T22:51:33.779Z,51.50
2018-02-23T22:54:01.111Z,51.40
2018-02-23T22:56:27.663Z,51.30
2018-02-23T22:58:54.998Z,50.90
2018-02-23T23:01:21.574Z,50.80
2018-02-23T23:03:48.190Z,51.60
2018-02-23T23:06:14.814Z,51.90
2018-02-23T23:08:41.422Z,51.70
2018-02-23T23:11:08.035Z,51.60
2018-02-23T23:13:34.630Z,51.40
2018-02-23T23:16:02.007Z,52.10
2018-02-23T23:18:29.329Z,51.90
2018-02-23T23:20:56.004Z,51.90
2018-02-23T23:23:23.362Z,52.50
2018-02-23T23:25:50.703Z,52.30
2018-02-23T23:28:17.360Z,52.20
2018-02-23T23:30:44.035Z,51.60
2018-02-23T23:33:10.615Z,51.30
2018-02-23T23:35:37.200Z,52.30
2018-02-23T23:38:03.779Z,52.10
2018-02-23T23:40:31.133Z,51.60
2018-02-23T23:42:57.707Z,51.70
2018-02-23T23:45:24.292Z,52.20
2018-02-23T23:47:50.875Z,52.10
2018-02-23T23:50:18.143Z,51.40
2018-02-23T23:52:44.743Z,51.40
2018-02-23T23:55:11.311Z,51.50
2018-02-23T23:57:37.922Z,51.90
